Terminal Aerodrome Forecast
Issued by NWS Sterling, VA

Current Version | Previous Version | Text Only | Print | Product List | Glossary On
Versions: 1 2 3 4 5 6 7 8 9 10 11 12 13
000
FTUS41 KLWX 200525
TAFMRB
TAF
KMRB 200525Z 2006/2106 31007KT P6SM SCT200
     FM201400 35007KT P6SM FEW150
     FM202100 03006KT P6SM FEW200=

USA.gov is the U.S. government's official web portal to all federal, state and local government web resources and services.